sensor_id;sensor_type;location;lat;lon;timestamp;P1;durP1;ratioP1;P2;durP2;ratioP2
23169;SDS011;11753;43.144;24.714;2022-09-13T00:00:01;4.75;;;2.20;;
23169;SDS011;11753;43.144;24.714;2022-09-13T00:01:06;2.85;;;1.98;;
23169;SDS011;11753;43.144;24.714;2022-09-13T00:02:07;2.92;;;2.17;;
23169;SDS011;11753;43.144;24.714;2022-09-13T00:03:10;3.80;;;2.30;;
23169;SDS011;11753;43.144;24.714;2022-09-13T00:04:12;4.00;;;2.10;;
23169;SDS011;11753;43.144;24.714;2022-09-13T00:05:13;2.65;;;2.05;;
23169;SDS011;11753;43.144;24.714;2022-09-13T00:06:15;3.92;;;2.28;;
23169;SDS011;11753;43.144;24.714;2022-09-13T00:07:18;3.25;;;2.35;;
23169;SDS011;11753;43.144;24.714;2022-09-13T00:08:19;4.03;;;2.10;;
23169;SDS011;11753;43.144;24.714;2022-09-13T00:09:20;3.70;;;2.47;;
23169;SDS011;11753;43.144;24.714;2022-09-13T00:10:21;3.55;;;1.80;;
23169;SDS011;11753;43.144;24.714;2022-09-13T00:11:23;3.03;;;2.20;;
23169;SDS011;11753;43.144;24.714;2022-09-13T00:12:25;3.88;;;2.38;;
23169;SDS011;11753;43.144;24.714;2022-09-13T00:13:26;4.10;;;2.20;;
23169;SDS011;11753;43.144;24.714;2022-09-13T00:14:27;6.07;;;2.50;;
23169;SDS011;11753;43.144;24.714;2022-09-13T00:15:29;3.08;;;2.30;;
23169;SDS011;11753;43.144;24.714;2022-09-13T00:16:30;4.65;;;2.33;;
23169;SDS011;11753;43.144;24.714;2022-09-13T00:17:34;3.55;;;2.30;;
23169;SDS011;11753;43.144;24.714;2022-09-13T00:18:35;3.78;;;2.20;;
23169;SDS011;11753;43.144;24.714;2022-09-13T00:19:36;3.45;;;2.42;;
23169;SDS011;11753;43.144;24.714;2022-09-13T00:20:37;5.00;;;2.45;;
23169;SDS011;11753;43.144;24.714;2022-09-13T00:21:38;5.13;;;2.40;;
23169;SDS011;11753;43.144;24.714;2022-09-13T00:22:39;4.72;;;2.05;;
23169;SDS011;11753;43.144;24.714;2022-09-13T00:23:49;4.68;;;2.30;;
23169;SDS011;11753;43.144;24.714;2022-09-13T00:24:51;3.40;;;2.60;;
23169;SDS011;11753;43.144;24.714;2022-09-13T00:25:52;3.47;;;2.28;;
23169;SDS011;11753;43.144;24.714;2022-09-13T00:26:52;3.85;;;2.22;;
23169;SDS011;11753;43.144;24.714;2022-09-13T00:27:54;3.53;;;2.45;;
23169;SDS011;11753;43.144;24.714;2022-09-13T00:28:56;5.82;;;2.50;;
23169;SDS011;11753;43.144;24.714;2022-09-13T00:29:57;3.35;;;2.35;;
23169;SDS011;11753;43.144;24.714;2022-09-13T00:30:59;3.40;;;2.38;;
23169;SDS011;11753;43.144;24.714;2022-09-13T00:32:02;3.35;;;2.25;;
23169;SDS011;11753;43.144;24.714;2022-09-13T00:33:03;5.10;;;2.67;;
23169;SDS011;11753;43.144;24.714;2022-09-13T00:34:04;3.72;;;2.40;;
23169;SDS011;11753;43.144;24.714;2022-09-13T00:35:04;4.28;;;2.20;;
23169;SDS011;11753;43.144;24.714;2022-09-13T00:36:08;5.47;;;2.50;;
23169;SDS011;11753;43.144;24.714;2022-09-13T00:37:10;5.38;;;2.85;;
23169;SDS011;11753;43.144;24.714;2022-09-13T00:38:11;4.75;;;2.35;;
23169;SDS011;11753;43.144;24.714;2022-09-13T00:39:12;3.38;;;2.50;;
23169;SDS011;11753;43.144;24.714;2022-09-13T00:40:16;3.33;;;2.05;;
23169;SDS011;11753;43.144;24.714;2022-09-13T00:41:18;4.68;;;2.58;;
23169;SDS011;11753;43.144;24.714;2022-09-13T00:42:25;4.18;;;2.42;;
23169;SDS011;11753;43.144;24.714;2022-09-13T00:45:55;6.20;;;2.80;;
23169;SDS011;11753;43.144;24.714;2022-09-13T00:46:56;3.28;;;2.30;;
23169;SDS011;11753;43.144;24.714;2022-09-13T00:47:58;6.18;;;2.90;;
23169;SDS011;11753;43.144;24.714;2022-09-13T00:49:13;6.18;;;2.33;;
23169;SDS011;11753;43.144;24.714;2022-09-13T00:50:26;4.82;;;2.20;;
23169;SDS011;11753;43.144;24.714;2022-09-13T00:51:34;3.33;;;2.17;;
23169;SDS011;11753;43.144;24.714;2022-09-13T00:52:36;3.70;;;2.40;;
23169;SDS011;11753;43.144;24.714;2022-09-13T00:53:41;4.25;;;2.40;;
23169;SDS011;11753;43.144;24.714;2022-09-13T00:54:48;4.47;;;2.47;;
23169;SDS011;11753;43.144;24.714;2022-09-13T00:57:01;5.88;;;2.70;;
23169;SDS011;11753;43.144;24.714;2022-09-13T00:58:05;3.55;;;2.33;;
23169;SDS011;11753;43.144;24.714;2022-09-13T00:59:18;5.60;;;2.60;;
23169;SDS011;11753;43.144;24.714;2022-09-13T01:00:23;3.25;;;2.40;;
23169;SDS011;11753;43.144;24.714;2022-09-13T01:01:25;4.32;;;2.78;;
23169;SDS011;11753;43.144;24.714;2022-09-13T01:02:31;4.15;;;2.72;;
23169;SDS011;11753;43.144;24.714;2022-09-13T01:03:32;5.03;;;2.75;;
23169;SDS011;11753;43.144;24.714;2022-09-13T01:04:34;5.15;;;2.97;;
23169;SDS011;11753;43.144;24.714;2022-09-13T01:05:38;4.35;;;2.47;;
23169;SDS011;11753;43.144;24.714;2022-09-13T01:06:43;4.22;;;2.20;;
23169;SDS011;11753;43.144;24.714;2022-09-13T01:07:44;3.80;;;2.80;;
23169;SDS011;11753;43.144;24.714;2022-09-13T01:08:47;4.57;;;2.42;;
23169;SDS011;11753;43.144;24.714;2022-09-13T01:09:50;4.95;;;2.17;;
23169;SDS011;11753;43.144;24.714;2022-09-13T01:10:52;4.38;;;2.88;;
23169;SDS011;11753;43.144;24.714;2022-09-13T01:12:00;4.05;;;2.42;;
23169;SDS011;11753;43.144;24.714;2022-09-13T01:13:17;3.47;;;2.30;;
23169;SDS011;11753;43.144;24.714;2022-09-13T01:14:22;5.10;;;2.42;;
23169;SDS011;11753;43.144;24.714;2022-09-13T01:15:24;3.83;;;2.78;;
23169;SDS011;11753;43.144;24.714;2022-09-13T01:16:24;3.95;;;2.30;;
23169;SDS011;11753;43.144;24.714;2022-09-13T01:17:27;5.47;;;2.53;;
23169;SDS011;11753;43.144;24.714;2022-09-13T01:18:29;3.97;;;2.60;;
23169;SDS011;11753;43.144;24.714;2022-09-13T01:19:30;3.03;;;2.20;;
23169;SDS011;11753;43.144;24.714;2022-09-13T01:24:36;4.20;;;2.20;;
23169;SDS011;11753;43.144;24.714;2022-09-13T01:27:22;2.80;;;2.10;;
23169;SDS011;11753;43.144;24.714;2022-09-13T01:31:06;7.80;;;2.30;;
23169;SDS011;11753;43.144;24.714;2022-09-13T01:32:28;3.75;;;2.35;;
23169;SDS011;11753;43.144;24.714;2022-09-13T01:38:52;4.80;;;2.28;;
23169;SDS011;11753;43.144;24.714;2022-09-13T01:41:38;4.75;;;2.25;;
23169;SDS011;11753;43.144;24.714;2022-09-13T01:46:08;2.88;;;2.13;;
23169;SDS011;11753;43.144;24.714;2022-09-13T01:52:26;4.25;;;2.13;;
23169;SDS011;11753;43.144;24.714;2022-09-13T01:59:21;2.95;;;1.92;;
23169;SDS011;11753;43.144;24.714;2022-09-13T02:00:28;3.28;;;2.20;;
23169;SDS011;11753;43.144;24.714;2022-09-13T02:01:51;3.28;;;2.05;;
23169;SDS011;11753;43.144;24.714;2022-09-13T02:03:01;3.78;;;2.40;;
23169;SDS011;11753;43.144;24.714;2022-09-13T02:05:11;4.45;;;2.10;;
23169;SDS011;11753;43.144;24.714;2022-09-13T02:06:16;4.18;;;1.98;;
23169;SDS011;11753;43.144;24.714;2022-09-13T02:07:23;4.97;;;2.30;;
23169;SDS011;11753;43.144;24.714;2022-09-13T02:08:45;3.50;;;2.55;;
23169;SDS011;11753;43.144;24.714;2022-09-13T02:09:55;3.72;;;2.10;;
23169;SDS011;11753;43.144;24.714;2022-09-13T02:11:03;3.75;;;2.20;;
23169;SDS011;11753;43.144;24.714;2022-09-13T02:12:18;4.20;;;2.60;;
23169;SDS011;11753;43.144;24.714;2022-09-13T02:13:24;4.10;;;2.25;;
23169;SDS011;11753;43.144;24.714;2022-09-13T02:14:32;2.97;;;2.13;;
23169;SDS011;11753;43.144;24.714;2022-09-13T02:15:38;4.20;;;2.63;;
23169;SDS011;11753;43.144;24.714;2022-09-13T02:16:55;4.18;;;2.33;;
23169;SDS011;11753;43.144;24.714;2022-09-13T02:18:11;3.13;;;2.10;;
23169;SDS011;11753;43.144;24.714;2022-09-13T02:20:04;3.47;;;2.50;;
23169;SDS011;11753;43.144;24.714;2022-09-13T02:21:06;4.70;;;1.98;;
23169;SDS011;11753;43.144;24.714;2022-09-13T02:22:18;4.25;;;2.20;;
23169;SDS011;11753;43.144;24.714;2022-09-13T02:23:24;3.90;;;2.28;;
23169;SDS011;11753;43.144;24.714;2022-09-13T02:24:53;3.67;;;2.28;;
23169;SDS011;11753;43.144;24.714;2022-09-13T02:25:56;4.57;;;2.53;;
23169;SDS011;11753;43.144;24.714;2022-09-13T02:27:08;5.60;;;2.50;;
23169;SDS011;11753;43.144;24.714;2022-09-13T02:28:14;5.13;;;2.40;;
23169;SDS011;11753;43.144;24.714;2022-09-13T02:29:21;6.10;;;2.75;;
23169;SDS011;11753;43.144;24.714;2022-09-13T02:30:29;3.60;;;2.20;;
23169;SDS011;11753;43.144;24.714;2022-09-13T02:31:34;3.55;;;2.20;;
23169;SDS011;11753;43.144;24.714;2022-09-13T02:33:50;7.07;;;2.63;;
23169;SDS011;11753;43.144;24.714;2022-09-13T02:35:05;6.15;;;2.90;;
23169;SDS011;11753;43.144;24.714;2022-09-13T02:36:15;3.33;;;2.17;;
23169;SDS011;11753;43.144;24.714;2022-09-13T02:37:22;3.72;;;2.30;;
23169;SDS011;11753;43.144;24.714;2022-09-13T02:38:31;5.40;;;2.33;;
23169;SDS011;11753;43.144;24.714;2022-09-13T02:39:39;3.30;;;2.15;;
23169;SDS011;11753;43.144;24.714;2022-09-13T02:40:47;3.50;;;2.40;;
23169;SDS011;11753;43.144;24.714;2022-09-13T02:41:57;4.70;;;2.50;;
23169;SDS011;11753;43.144;24.714;2022-09-13T02:43:01;3.95;;;2.08;;
23169;SDS011;11753;43.144;24.714;2022-09-13T02:45:14;4.90;;;2.42;;
23169;SDS011;11753;43.144;24.714;2022-09-13T02:47:58;3.60;;;2.30;;
23169;SDS011;11753;43.144;24.714;2022-09-13T02:49:16;5.00;;;2.20;;
23169;SDS011;11753;43.144;24.714;2022-09-13T02:50:45;5.05;;;2.17;;
23169;SDS011;11753;43.144;24.714;2022-09-13T02:54:48;3.60;;;2.00;;
23169;SDS011;11753;43.144;24.714;2022-09-13T02:57:13;5.20;;;2.30;;
23169;SDS011;11753;43.144;24.714;2022-09-13T02:59:44;6.97;;;2.65;;
23169;SDS011;11753;43.144;24.714;2022-09-13T03:00:46;4.95;;;2.40;;
23169;SDS011;11753;43.144;24.714;2022-09-13T03:01:49;3.75;;;2.05;;
23169;SDS011;11753;43.144;24.714;2022-09-13T03:02:57;4.03;;;2.30;;
23169;SDS011;11753;43.144;24.714;2022-09-13T03:04:02;5.10;;;2.42;;
23169;SDS011;11753;43.144;24.714;2022-09-13T03:05:03;3.28;;;2.00;;
23169;SDS011;11753;43.144;24.714;2022-09-13T03:06:04;2.83;;;1.83;;
23169;SDS011;11753;43.144;24.714;2022-09-13T03:07:09;5.22;;;2.35;;
23169;SDS011;11753;43.144;24.714;2022-09-13T03:08:13;3.10;;;2.03;;
23169;SDS011;11753;43.144;24.714;2022-09-13T03:09:17;4.43;;;2.30;;
23169;SDS011;11753;43.144;24.714;2022-09-13T03:10:19;2.85;;;2.05;;
23169;SDS011;11753;43.144;24.714;2022-09-13T03:15:05;3.05;;;2.08;;
23169;SDS011;11753;43.144;24.714;2022-09-13T03:16:20;3.75;;;2.22;;
23169;SDS011;11753;43.144;24.714;2022-09-13T03:25:27;4.93;;;2.25;;
23169;SDS011;11753;43.144;24.714;2022-09-13T03:26:51;4.05;;;1.80;;
23169;SDS011;11753;43.144;24.714;2022-09-13T03:31:26;4.00;;;2.35;;
23169;SDS011;11753;43.144;24.714;2022-09-13T03:32:34;3.72;;;2.30;;
23169;SDS011;11753;43.144;24.714;2022-09-13T03:33:46;3.25;;;2.30;;
23169;SDS011;11753;43.144;24.714;2022-09-13T03:36:18;3.65;;;2.45;;
23169;SDS011;11753;43.144;24.714;2022-09-13T03:39:01;3.75;;;2.00;;
23169;SDS011;11753;43.144;24.714;2022-09-13T03:40:13;3.15;;;2.13;;
23169;SDS011;11753;43.144;24.714;2022-09-13T03:41:24;3.30;;;2.30;;
23169;SDS011;11753;43.144;24.714;2022-09-13T03:43:58;5.13;;;2.65;;
23169;SDS011;11753;43.144;24.714;2022-09-13T03:45:02;3.60;;;2.47;;
23169;SDS011;11753;43.144;24.714;2022-09-13T03:46:08;3.72;;;2.53;;
23169;SDS011;11753;43.144;24.714;2022-09-13T03:47:14;4.10;;;2.38;;
23169;SDS011;11753;43.144;24.714;2022-09-13T03:48:17;4.85;;;2.38;;
23169;SDS011;11753;43.144;24.714;2022-09-13T03:49:19;3.95;;;2.35;;
23169;SDS011;11753;43.144;24.714;2022-09-13T03:50:22;6.78;;;2.83;;
23169;SDS011;11753;43.144;24.714;2022-09-13T03:51:25;7.35;;;2.60;;
23169;SDS011;11753;43.144;24.714;2022-09-13T03:52:26;5.07;;;2.60;;
23169;SDS011;11753;43.144;24.714;2022-09-13T03:53:28;4.00;;;2.53;;
23169;SDS011;11753;43.144;24.714;2022-09-13T03:54:30;4.18;;;2.53;;
23169;SDS011;11753;43.144;24.714;2022-09-13T03:55:39;3.50;;;2.20;;
23169;SDS011;11753;43.144;24.714;2022-09-13T03:56:42;3.92;;;2.58;;
23169;SDS011;11753;43.144;24.714;2022-09-13T03:57:43;4.90;;;2.50;;
23169;SDS011;11753;43.144;24.714;2022-09-13T03:58:44;6.40;;;2.45;;
23169;SDS011;11753;43.144;24.714;2022-09-13T03:59:47;3.53;;;2.13;;
23169;SDS011;11753;43.144;24.714;2022-09-13T04:00:53;4.18;;;2.47;;
23169;SDS011;11753;43.144;24.714;2022-09-13T04:01:53;3.63;;;2.50;;
23169;SDS011;11753;43.144;24.714;2022-09-13T04:02:54;4.60;;;2.40;;
23169;SDS011;11753;43.144;24.714;2022-09-13T04:03:55;4.35;;;2.40;;
23169;SDS011;11753;43.144;24.714;2022-09-13T04:04:56;4.90;;;3.13;;
23169;SDS011;11753;43.144;24.714;2022-09-13T04:05:57;7.03;;;2.72;;
23169;SDS011;11753;43.144;24.714;2022-09-13T04:06:58;4.05;;;2.55;;
23169;SDS011;11753;43.144;24.714;2022-09-13T04:08:02;4.10;;;2.58;;
23169;SDS011;11753;43.144;24.714;2022-09-13T04:09:04;3.17;;;2.40;;
23169;SDS011;11753;43.144;24.714;2022-09-13T04:10:06;2.90;;;2.00;;
23169;SDS011;11753;43.144;24.714;2022-09-13T04:11:07;3.83;;;2.30;;
23169;SDS011;11753;43.144;24.714;2022-09-13T04:12:09;4.82;;;2.70;;
23169;SDS011;11753;43.144;24.714;2022-09-13T04:13:10;4.03;;;2.60;;
23169;SDS011;11753;43.144;24.714;2022-09-13T04:14:11;5.28;;;2.70;;
23169;SDS011;11753;43.144;24.714;2022-09-13T04:15:12;3.60;;;2.50;;
23169;SDS011;11753;43.144;24.714;2022-09-13T04:16:13;6.30;;;2.50;;
23169;SDS011;11753;43.144;24.714;2022-09-13T04:17:14;4.60;;;2.70;;
23169;SDS011;11753;43.144;24.714;2022-09-13T04:18:16;3.80;;;2.67;;
23169;SDS011;11753;43.144;24.714;2022-09-13T04:19:16;4.88;;;2.88;;
23169;SDS011;11753;43.144;24.714;2022-09-13T04:20:18;4.95;;;2.90;;
23169;SDS011;11753;43.144;24.714;2022-09-13T04:21:19;3.42;;;2.50;;
23169;SDS011;11753;43.144;24.714;2022-09-13T04:22:21;4.90;;;2.60;;
23169;SDS011;11753;43.144;24.714;2022-09-13T04:23:22;4.90;;;2.80;;
23169;SDS011;11753;43.144;24.714;2022-09-13T04:24:25;5.57;;;2.38;;
23169;SDS011;11753;43.144;24.714;2022-09-13T04:25:28;6.43;;;2.70;;
23169;SDS011;11753;43.144;24.714;2022-09-13T04:26:31;5.13;;;2.38;;
23169;SDS011;11753;43.144;24.714;2022-09-13T04:27:33;5.22;;;2.42;;
23169;SDS011;11753;43.144;24.714;2022-09-13T04:28:37;4.28;;;2.30;;
23169;SDS011;11753;43.144;24.714;2022-09-13T04:29:37;3.63;;;2.35;;
23169;SDS011;11753;43.144;24.714;2022-09-13T04:30:38;4.13;;;2.38;;
23169;SDS011;11753;43.144;24.714;2022-09-13T04:31:43;4.90;;;2.72;;
23169;SDS011;11753;43.144;24.714;2022-09-13T04:32:45;3.80;;;2.30;;
23169;SDS011;11753;43.144;24.714;2022-09-13T04:33:46;3.28;;;2.35;;
23169;SDS011;11753;43.144;24.714;2022-09-13T04:34:46;3.80;;;2.17;;
23169;SDS011;11753;43.144;24.714;2022-09-13T04:35:47;9.95;;;3.50;;
23169;SDS011;11753;43.144;24.714;2022-09-13T04:36:52;9.48;;;3.30;;
23169;SDS011;11753;43.144;24.714;2022-09-13T04:37:54;4.97;;;2.90;;
23169;SDS011;11753;43.144;24.714;2022-09-13T04:38:56;6.63;;;2.83;;
23169;SDS011;11753;43.144;24.714;2022-09-13T04:39:57;5.18;;;2.50;;
23169;SDS011;11753;43.144;24.714;2022-09-13T04:40:58;5.25;;;2.85;;
23169;SDS011;11753;43.144;24.714;2022-09-13T04:41:58;4.78;;;3.10;;
23169;SDS011;11753;43.144;24.714;2022-09-13T04:42:59;4.82;;;2.63;;
23169;SDS011;11753;43.144;24.714;2022-09-13T04:44:01;4.45;;;3.03;;
23169;SDS011;11753;43.144;24.714;2022-09-13T04:45:02;3.72;;;2.40;;
23169;SDS011;11753;43.144;24.714;2022-09-13T04:46:03;11.73;;;6.20;;
23169;SDS011;11753;43.144;24.714;2022-09-13T04:47:05;12.30;;;6.82;;
23169;SDS011;11753;43.144;24.714;2022-09-13T04:48:05;10.52;;;5.47;;
23169;SDS011;11753;43.144;24.714;2022-09-13T04:49:06;7.03;;;4.32;;
23169;SDS011;11753;43.144;24.714;2022-09-13T04:50:06;8.02;;;3.45;;
23169;SDS011;11753;43.144;24.714;2022-09-13T04:51:08;7.57;;;3.00;;
23169;SDS011;11753;43.144;24.714;2022-09-13T04:52:09;5.07;;;3.08;;
23169;SDS011;11753;43.144;24.714;2022-09-13T04:53:10;5.63;;;2.60;;
23169;SDS011;11753;43.144;24.714;2022-09-13T04:54:11;6.47;;;2.50;;
23169;SDS011;11753;43.144;24.714;2022-09-13T04:55:12;4.20;;;2.83;;
23169;SDS011;11753;43.144;24.714;2022-09-13T04:56:14;6.38;;;2.70;;
23169;SDS011;11753;43.144;24.714;2022-09-13T04:57:15;4.05;;;2.58;;
23169;SDS011;11753;43.144;24.714;2022-09-13T04:58:16;4.07;;;2.70;;
23169;SDS011;11753;43.144;24.714;2022-09-13T04:59:18;4.60;;;2.58;;
23169;SDS011;11753;43.144;24.714;2022-09-13T05:00:19;4.55;;;2.53;;
23169;SDS011;11753;43.144;24.714;2022-09-13T05:01:20;5.40;;;2.53;;
23169;SDS011;11753;43.144;24.714;2022-09-13T05:02:22;3.47;;;2.42;;
23169;SDS011;11753;43.144;24.714;2022-09-13T05:03:23;5.30;;;3.00;;
23169;SDS011;11753;43.144;24.714;2022-09-13T05:04:26;5.25;;;2.80;;
23169;SDS011;11753;43.144;24.714;2022-09-13T05:05:27;6.85;;;3.13;;
23169;SDS011;11753;43.144;24.714;2022-09-13T05:06:31;5.57;;;2.60;;
23169;SDS011;11753;43.144;24.714;2022-09-13T05:07:32;5.18;;;2.70;;
23169;SDS011;11753;43.144;24.714;2022-09-13T05:08:32;5.65;;;2.80;;
23169;SDS011;11753;43.144;24.714;2022-09-13T05:09:33;3.97;;;2.50;;
23169;SDS011;11753;43.144;24.714;2022-09-13T05:10:34;4.13;;;2.90;;
23169;SDS011;11753;43.144;24.714;2022-09-13T05:11:34;4.22;;;2.60;;
23169;SDS011;11753;43.144;24.714;2022-09-13T05:12:35;4.75;;;2.60;;
23169;SDS011;11753;43.144;24.714;2022-09-13T05:13:36;4.65;;;2.92;;
23169;SDS011;11753;43.144;24.714;2022-09-13T05:14:36;4.65;;;2.85;;
23169;SDS011;11753;43.144;24.714;2022-09-13T05:15:37;5.95;;;3.22;;
23169;SDS011;11753;43.144;24.714;2022-09-13T05:16:38;4.70;;;2.72;;
23169;SDS011;11753;43.144;24.714;2022-09-13T05:17:40;3.63;;;2.80;;
23169;SDS011;11753;43.144;24.714;2022-09-13T05:18:41;4.50;;;2.70;;
23169;SDS011;11753;43.144;24.714;2022-09-13T05:19:41;4.65;;;2.45;;
23169;SDS011;11753;43.144;24.714;2022-09-13T05:20:42;5.28;;;2.67;;
23169;SDS011;11753;43.144;24.714;2022-09-13T05:21:43;5.28;;;2.47;;
23169;SDS011;11753;43.144;24.714;2022-09-13T05:22:43;3.63;;;2.58;;
23169;SDS011;11753;43.144;24.714;2022-09-13T05:23:47;4.55;;;2.35;;
23169;SDS011;11753;43.144;24.714;2022-09-13T05:24:49;4.40;;;3.00;;
23169;SDS011;11753;43.144;24.714;2022-09-13T05:25:59;3.65;;;2.72;;
23169;SDS011;11753;43.144;24.714;2022-09-13T05:27:02;6.32;;;3.17;;
23169;SDS011;11753;43.144;24.714;2022-09-13T05:28:03;7.85;;;2.67;;
23169;SDS011;11753;43.144;24.714;2022-09-13T05:29:05;4.40;;;2.80;;
23169;SDS011;11753;43.144;24.714;2022-09-13T05:30:06;3.97;;;3.15;;
23169;SDS011;11753;43.144;24.714;2022-09-13T05:31:08;5.05;;;3.17;;
23169;SDS011;11753;43.144;24.714;2022-09-13T05:32:15;5.95;;;3.65;;
23169;SDS011;11753;43.144;24.714;2022-09-13T05:33:16;4.70;;;3.45;;
23169;SDS011;11753;43.144;24.714;2022-09-13T05:34:17;4.63;;;3.47;;
23169;SDS011;11753;43.144;24.714;2022-09-13T05:35:18;5.70;;;3.22;;
23169;SDS011;11753;43.144;24.714;2022-09-13T05:36:20;3.85;;;2.80;;
23169;SDS011;11753;43.144;24.714;2022-09-13T05:37:21;4.82;;;3.30;;
23169;SDS011;11753;43.144;24.714;2022-09-13T05:38:22;4.70;;;3.03;;
23169;SDS011;11753;43.144;24.714;2022-09-13T05:39:23;7.22;;;3.15;;
23169;SDS011;11753;43.144;24.714;2022-09-13T05:40:24;4.05;;;2.90;;
23169;SDS011;11753;43.144;24.714;2022-09-13T05:41:24;6.28;;;3.15;;
23169;SDS011;11753;43.144;24.714;2022-09-13T05:42:25;5.25;;;3.20;;
23169;SDS011;11753;43.144;24.714;2022-09-13T05:43:27;5.85;;;2.97;;
23169;SDS011;11753;43.144;24.714;2022-09-13T05:44:30;5.18;;;2.85;;
23169;SDS011;11753;43.144;24.714;2022-09-13T05:45:31;3.53;;;2.60;;
23169;SDS011;11753;43.144;24.714;2022-09-13T05:46:32;3.90;;;2.67;;
23169;SDS011;11753;43.144;24.714;2022-09-13T05:47:33;3.90;;;2.70;;
23169;SDS011;11753;43.144;24.714;2022-09-13T05:48:34;6.00;;;2.88;;
23169;SDS011;11753;43.144;24.714;2022-09-13T05:49:36;5.38;;;2.72;;
23169;SDS011;11753;43.144;24.714;2022-09-13T05:50:37;4.93;;;2.70;;
23169;SDS011;11753;43.144;24.714;2022-09-13T05:51:38;5.10;;;3.05;;
23169;SDS011;11753;43.144;24.714;2022-09-13T05:52:39;5.70;;;3.05;;
23169;SDS011;11753;43.144;24.714;2022-09-13T05:53:41;4.70;;;2.70;;
23169;SDS011;11753;43.144;24.714;2022-09-13T05:54:44;5.75;;;2.80;;
23169;SDS011;11753;43.144;24.714;2022-09-13T05:55:44;5.38;;;2.75;;
23169;SDS011;11753;43.144;24.714;2022-09-13T05:56:45;4.18;;;2.53;;
23169;SDS011;11753;43.144;24.714;2022-09-13T05:57:46;4.85;;;3.08;;
23169;SDS011;11753;43.144;24.714;2022-09-13T05:58:48;4.22;;;2.85;;
23169;SDS011;11753;43.144;24.714;2022-09-13T05:59:50;3.88;;;2.65;;
23169;SDS011;11753;43.144;24.714;2022-09-13T06:00:54;5.25;;;2.70;;
23169;SDS011;11753;43.144;24.714;2022-09-13T06:01:56;3.90;;;2.83;;
23169;SDS011;11753;43.144;24.714;2022-09-13T06:02:57;9.20;;;3.80;;
23169;SDS011;11753;43.144;24.714;2022-09-13T06:03:59;4.82;;;2.60;;
23169;SDS011;11753;43.144;24.714;2022-09-13T06:05:00;5.35;;;3.17;;
23169;SDS011;11753;43.144;24.714;2022-09-13T06:06:01;5.82;;;2.75;;
23169;SDS011;11753;43.144;24.714;2022-09-13T06:07:03;5.20;;;2.50;;
23169;SDS011;11753;43.144;24.714;2022-09-13T06:08:04;4.18;;;2.42;;
23169;SDS011;11753;43.144;24.714;2022-09-13T06:09:05;4.30;;;2.55;;
23169;SDS011;11753;43.144;24.714;2022-09-13T06:10:08;4.88;;;2.63;;
23169;SDS011;11753;43.144;24.714;2022-09-13T06:11:11;4.70;;;2.40;;
23169;SDS011;11753;43.144;24.714;2022-09-13T06:12:13;4.47;;;2.67;;
23169;SDS011;11753;43.144;24.714;2022-09-13T06:13:14;7.10;;;2.78;;
23169;SDS011;11753;43.144;24.714;2022-09-13T06:14:14;6.25;;;3.20;;
23169;SDS011;11753;43.144;24.714;2022-09-13T06:15:16;5.70;;;2.70;;
23169;SDS011;11753;43.144;24.714;2022-09-13T06:16:17;4.75;;;2.38;;
23169;SDS011;11753;43.144;24.714;2022-09-13T06:17:17;5.80;;;2.28;;
23169;SDS011;11753;43.144;24.714;2022-09-13T06:18:18;3.63;;;2.08;;
23169;SDS011;11753;43.144;24.714;2022-09-13T06:19:19;5.57;;;2.60;;
23169;SDS011;11753;43.144;24.714;2022-09-13T06:20:20;3.55;;;2.40;;
23169;SDS011;11753;43.144;24.714;2022-09-13T06:21:21;5.25;;;2.42;;
23169;SDS011;11753;43.144;24.714;2022-09-13T06:22:22;5.75;;;2.63;;
23169;SDS011;11753;43.144;24.714;2022-09-13T06:23:22;4.25;;;2.40;;
23169;SDS011;11753;43.144;24.714;2022-09-13T06:24:23;3.45;;;2.22;;
23169;SDS011;11753;43.144;24.714;2022-09-13T06:25:26;4.78;;;2.70;;
23169;SDS011;11753;43.144;24.714;2022-09-13T06:26:27;3.88;;;2.25;;
23169;SDS011;11753;43.144;24.714;2022-09-13T06:27:28;3.90;;;2.55;;
23169;SDS011;11753;43.144;24.714;2022-09-13T06:28:30;3.95;;;2.30;;
23169;SDS011;11753;43.144;24.714;2022-09-13T06:29:32;5.60;;;2.20;;
23169;SDS011;11753;43.144;24.714;2022-09-13T06:30:33;3.92;;;2.28;;
23169;SDS011;11753;43.144;24.714;2022-09-13T06:31:35;6.05;;;2.55;;
23169;SDS011;11753;43.144;24.714;2022-09-13T06:32:38;9.55;;;3.25;;
23169;SDS011;11753;43.144;24.714;2022-09-13T06:33:40;5.05;;;2.20;;
23169;SDS011;11753;43.144;24.714;2022-09-13T06:34:42;4.10;;;2.20;;
23169;SDS011;11753;43.144;24.714;2022-09-13T06:35:43;6.13;;;3.15;;
23169;SDS011;11753;43.144;24.714;2022-09-13T06:36:44;12.00;;;2.78;;
23169;SDS011;11753;43.144;24.714;2022-09-13T06:37:44;5.03;;;2.75;;
23169;SDS011;11753;43.144;24.714;2022-09-13T06:38:46;4.78;;;2.67;;
23169;SDS011;11753;43.144;24.714;2022-09-13T06:39:50;5.30;;;2.75;;
23169;SDS011;11753;43.144;24.714;2022-09-13T06:42:06;5.63;;;2.67;;
23169;SDS011;11753;43.144;24.714;2022-09-13T06:43:09;7.45;;;3.00;;
23169;SDS011;11753;43.144;24.714;2022-09-13T06:44:11;14.57;;;5.15;;
23169;SDS011;11753;43.144;24.714;2022-09-13T06:45:11;11.70;;;3.80;;
23169;SDS011;11753;43.144;24.714;2022-09-13T06:46:16;9.75;;;3.72;;
23169;SDS011;11753;43.144;24.714;2022-09-13T06:47:19;7.15;;;3.50;;
23169;SDS011;11753;43.144;24.714;2022-09-13T06:48:19;7.65;;;2.90;;
23169;SDS011;11753;43.144;24.714;2022-09-13T06:49:20;6.35;;;2.63;;
23169;SDS011;11753;43.144;24.714;2022-09-13T06:50:20;4.65;;;2.50;;
23169;SDS011;11753;43.144;24.714;2022-09-13T06:51:22;7.07;;;2.90;;
23169;SDS011;11753;43.144;24.714;2022-09-13T06:52:23;7.60;;;2.92;;
23169;SDS011;11753;43.144;24.714;2022-09-13T06:53:24;7.50;;;3.22;;
23169;SDS011;11753;43.144;24.714;2022-09-13T06:54:28;11.50;;;4.18;;
23169;SDS011;11753;43.144;24.714;2022-09-13T06:55:29;4.25;;;2.70;;
23169;SDS011;11753;43.144;24.714;2022-09-13T06:56:31;3.63;;;2.20;;
23169;SDS011;11753;43.144;24.714;2022-09-13T06:57:34;7.53;;;2.70;;
23169;SDS011;11753;43.144;24.714;2022-09-13T06:58:42;3.35;;;2.05;;
23169;SDS011;11753;43.144;24.714;2022-09-13T06:59:44;5.18;;;2.63;;
23169;SDS011;11753;43.144;24.714;2022-09-13T07:00:45;5.00;;;2.45;;
23169;SDS011;11753;43.144;24.714;2022-09-13T07:01:46;4.72;;;2.50;;
23169;SDS011;11753;43.144;24.714;2022-09-13T07:02:50;3.70;;;2.40;;
23169;SDS011;11753;43.144;24.714;2022-09-13T07:03:53;5.47;;;2.40;;
23169;SDS011;11753;43.144;24.714;2022-09-13T07:04:56;3.58;;;2.20;;
23169;SDS011;11753;43.144;24.714;2022-09-13T07:05:57;4.80;;;2.95;;
23169;SDS011;11753;43.144;24.714;2022-09-13T07:06:58;6.25;;;2.20;;
23169;SDS011;11753;43.144;24.714;2022-09-13T07:08:00;3.70;;;2.28;;
23169;SDS011;11753;43.144;24.714;2022-09-13T07:09:02;2.85;;;2.00;;
23169;SDS011;11753;43.144;24.714;2022-09-13T07:10:04;3.25;;;2.03;;
23169;SDS011;11753;43.144;24.714;2022-09-13T07:11:05;4.30;;;2.22;;
23169;SDS011;11753;43.144;24.714;2022-09-13T07:12:07;3.95;;;2.13;;
23169;SDS011;11753;43.144;24.714;2022-09-13T07:13:07;3.75;;;2.20;;
23169;SDS011;11753;43.144;24.714;2022-09-13T07:14:10;3.83;;;2.38;;
23169;SDS011;11753;43.144;24.714;2022-09-13T07:15:13;4.90;;;2.63;;
23169;SDS011;11753;43.144;24.714;2022-09-13T07:16:14;4.65;;;2.28;;
23169;SDS011;11753;43.144;24.714;2022-09-13T07:17:14;5.57;;;2.65;;
23169;SDS011;11753;43.144;24.714;2022-09-13T07:18:15;6.00;;;2.30;;
23169;SDS011;11753;43.144;24.714;2022-09-13T07:19:17;3.75;;;2.15;;
23169;SDS011;11753;43.144;24.714;2022-09-13T07:20:22;3.40;;;2.20;;
23169;SDS011;11753;43.144;24.714;2022-09-13T07:21:23;5.13;;;2.30;;